sensor_id;sensor_type;location;lat;lon;timestamp;P1;durP1;ratioP1;P2;durP2;ratioP2
13263;SDS011;6700;51.988;7.646;2023-07-31T00:01:01;3.53;;;3.23;;
13263;SDS011;6700;51.988;7.646;2023-07-31T00:03:28;3.67;;;3.37;;
13263;SDS011;6700;51.988;7.646;2023-07-31T00:05:57;4.50;;;4.20;;
13263;SDS011;6700;51.988;7.646;2023-07-31T00:08:26;4.20;;;3.80;;
13263;SDS011;6700;51.988;7.646;2023-07-31T00:10:53;3.70;;;3.40;;
13263;SDS011;6700;51.988;7.646;2023-07-31T00:13:21;3.57;;;3.27;;
13263;SDS011;6700;51.988;7.646;2023-07-31T00:15:49;3.60;;;3.30;;
13263;SDS011;6700;51.988;7.646;2023-07-31T00:18:17;4.40;;;4.00;;
13263;SDS011;6700;51.988;7.646;2023-07-31T00:20:44;6.13;;;3.77;;
13263;SDS011;6700;51.988;7.646;2023-07-31T00:23:12;4.17;;;2.97;;
13263;SDS011;6700;51.988;7.646;2023-07-31T00:25:39;3.30;;;3.00;;
13263;SDS011;6700;51.988;7.646;2023-07-31T00:28:07;3.10;;;2.87;;
13263;SDS011;6700;51.988;7.646;2023-07-31T00:30:34;2.67;;;2.47;;
13263;SDS011;6700;51.988;7.646;2023-07-31T00:33:01;3.53;;;3.23;;
13263;SDS011;6700;51.988;7.646;2023-07-31T00:35:29;2.60;;;2.40;;
13263;SDS011;6700;51.988;7.646;2023-07-31T00:37:57;3.30;;;2.30;;
13263;SDS011;6700;51.988;7.646;2023-07-31T00:40:26;2.30;;;2.10;;
13263;SDS011;6700;51.988;7.646;2023-07-31T00:42:53;2.00;;;1.80;;
13263;SDS011;6700;51.988;7.646;2023-07-31T00:45:21;2.00;;;1.80;;
13263;SDS011;6700;51.988;7.646;2023-07-31T00:47:50;2.10;;;1.80;;
13263;SDS011;6700;51.988;7.646;2023-07-31T00:50:17;2.60;;;2.13;;
13263;SDS011;6700;51.988;7.646;2023-07-31T00:52:45;4.80;;;2.03;;
13263;SDS011;6700;51.988;7.646;2023-07-31T00:55:12;2.30;;;1.83;;
13263;SDS011;6700;51.988;7.646;2023-07-31T00:57:39;1.60;;;1.50;;
13263;SDS011;6700;51.988;7.646;2023-07-31T01:00:08;2.23;;;2.03;;
13263;SDS011;6700;51.988;7.646;2023-07-31T01:02:35;2.33;;;1.73;;
13263;SDS011;6700;51.988;7.646;2023-07-31T01:05:03;2.20;;;2.00;;
13263;SDS011;6700;51.988;7.646;2023-07-31T01:07:31;2.87;;;2.40;;
13263;SDS011;6700;51.988;7.646;2023-07-31T01:10:04;2.00;;;1.90;;
13263;SDS011;6700;51.988;7.646;2023-07-31T01:12:34;1.83;;;1.73;;
13263;SDS011;6700;51.988;7.646;2023-07-31T01:15:02;1.60;;;1.50;;
13263;SDS011;6700;51.988;7.646;2023-07-31T01:17:29;1.77;;;1.67;;
13263;SDS011;6700;51.988;7.646;2023-07-31T01:19:59;1.70;;;1.60;;
13263;SDS011;6700;51.988;7.646;2023-07-31T01:25:00;1.63;;;1.53;;
13263;SDS011;6700;51.988;7.646;2023-07-31T01:27:34;1.90;;;1.60;;
13263;SDS011;6700;51.988;7.646;2023-07-31T01:30:14;1.73;;;1.63;;
13263;SDS011;6700;51.988;7.646;2023-07-31T01:32:43;2.67;;;1.40;;
13263;SDS011;6700;51.988;7.646;2023-07-31T01:35:15;1.73;;;1.63;;
13263;SDS011;6700;51.988;7.646;2023-07-31T01:37:42;2.23;;;1.47;;
13263;SDS011;6700;51.988;7.646;2023-07-31T01:40:09;1.50;;;1.40;;
13263;SDS011;6700;51.988;7.646;2023-07-31T01:42:37;2.20;;;1.63;;
13263;SDS011;6700;51.988;7.646;2023-07-31T01:45:04;2.40;;;1.53;;
13263;SDS011;6700;51.988;7.646;2023-07-31T01:47:32;1.60;;;1.50;;
13263;SDS011;6700;51.988;7.646;2023-07-31T01:49:59;1.87;;;1.67;;
13263;SDS011;6700;51.988;7.646;2023-07-31T01:52:26;2.17;;;1.60;;
13263;SDS011;6700;51.988;7.646;2023-07-31T01:54:53;1.70;;;1.57;;
13263;SDS011;6700;51.988;7.646;2023-07-31T01:57:20;1.50;;;1.40;;
13263;SDS011;6700;51.988;7.646;2023-07-31T01:59:47;1.33;;;1.23;;
13263;SDS011;6700;51.988;7.646;2023-07-31T02:02:15;2.30;;;1.40;;
13263;SDS011;6700;51.988;7.646;2023-07-31T02:04:42;0.90;;;0.90;;
13263;SDS011;6700;51.988;7.646;2023-07-31T02:07:10;2.37;;;1.40;;
13263;SDS011;6700;51.988;7.646;2023-07-31T02:09:37;1.30;;;1.20;;
13263;SDS011;6700;51.988;7.646;2023-07-31T02:12:04;1.27;;;1.20;;
13263;SDS011;6700;51.988;7.646;2023-07-31T02:14:31;2.10;;;0.90;;
13263;SDS011;6700;51.988;7.646;2023-07-31T02:16:58;1.10;;;1.00;;
13263;SDS011;6700;51.988;7.646;2023-07-31T02:19:26;0.93;;;0.93;;
13263;SDS011;6700;51.988;7.646;2023-07-31T02:21:53;1.47;;;1.37;;
13263;SDS011;6700;51.988;7.646;2023-07-31T02:24:20;1.30;;;1.20;;
13263;SDS011;6700;51.988;7.646;2023-07-31T02:26:47;1.80;;;1.23;;
13263;SDS011;6700;51.988;7.646;2023-07-31T02:29:14;3.03;;;1.70;;
13263;SDS011;6700;51.988;7.646;2023-07-31T02:31:42;3.97;;;1.97;;
13263;SDS011;6700;51.988;7.646;2023-07-31T02:34:09;4.57;;;2.87;;
13263;SDS011;6700;51.988;7.646;2023-07-31T02:36:36;4.17;;;2.80;;
13263;SDS011;6700;51.988;7.646;2023-07-31T02:39:03;6.67;;;4.00;;
13263;SDS011;6700;51.988;7.646;2023-07-31T02:41:31;5.63;;;3.80;;
13263;SDS011;6700;51.988;7.646;2023-07-31T02:43:58;9.03;;;5.60;;
13263;SDS011;6700;51.988;7.646;2023-07-31T02:46:25;8.97;;;5.30;;
13263;SDS011;6700;51.988;7.646;2023-07-31T02:48:52;11.37;;;5.93;;
13263;SDS011;6700;51.988;7.646;2023-07-31T02:51:19;11.70;;;6.40;;
13263;SDS011;6700;51.988;7.646;2023-07-31T02:53:47;13.10;;;7.00;;
13263;SDS011;6700;51.988;7.646;2023-07-31T02:56:15;13.70;;;7.97;;
13263;SDS011;6700;51.988;7.646;2023-07-31T02:58:43;11.97;;;7.17;;
13263;SDS011;6700;51.988;7.646;2023-07-31T03:01:10;16.43;;;7.80;;
13263;SDS011;6700;51.988;7.646;2023-07-31T03:03:37;13.90;;;7.93;;
13263;SDS011;6700;51.988;7.646;2023-07-31T03:06:04;14.00;;;8.30;;
13263;SDS011;6700;51.988;7.646;2023-07-31T03:08:31;16.30;;;8.43;;
13263;SDS011;6700;51.988;7.646;2023-07-31T03:10:58;16.40;;;7.80;;
13263;SDS011;6700;51.988;7.646;2023-07-31T03:13:26;17.27;;;8.07;;
13263;SDS011;6700;51.988;7.646;2023-07-31T03:15:53;13.90;;;7.17;;
13263;SDS011;6700;51.988;7.646;2023-07-31T03:18:20;15.53;;;7.70;;
13263;SDS011;6700;51.988;7.646;2023-07-31T03:20:47;9.70;;;7.00;;
13263;SDS011;6700;51.988;7.646;2023-07-31T03:23:14;15.60;;;7.87;;
13263;SDS011;6700;51.988;7.646;2023-07-31T03:25:42;16.73;;;8.13;;
13263;SDS011;6700;51.988;7.646;2023-07-31T03:28:22;10.20;;;7.00;;
13263;SDS011;6700;51.988;7.646;2023-07-31T03:30:49;11.43;;;6.90;;
13263;SDS011;6700;51.988;7.646;2023-07-31T03:33:17;13.10;;;6.83;;
13263;SDS011;6700;51.988;7.646;2023-07-31T03:35:44;12.67;;;5.97;;
13263;SDS011;6700;51.988;7.646;2023-07-31T03:38:11;17.90;;;7.47;;
13263;SDS011;6700;51.988;7.646;2023-07-31T03:40:39;13.63;;;7.13;;
13263;SDS011;6700;51.988;7.646;2023-07-31T03:43:06;18.03;;;6.73;;
13263;SDS011;6700;51.988;7.646;2023-07-31T03:45:33;13.63;;;6.90;;
13263;SDS011;6700;51.988;7.646;2023-07-31T03:48:00;21.20;;;6.93;;
13263;SDS011;6700;51.988;7.646;2023-07-31T03:50:28;15.27;;;7.07;;
13263;SDS011;6700;51.988;7.646;2023-07-31T03:52:55;12.30;;;6.43;;
13263;SDS011;6700;51.988;7.646;2023-07-31T03:55:22;13.03;;;6.90;;
13263;SDS011;6700;51.988;7.646;2023-07-31T03:57:49;11.20;;;6.00;;
13263;SDS011;6700;51.988;7.646;2023-07-31T04:00:16;13.57;;;7.33;;
13263;SDS011;6700;51.988;7.646;2023-07-31T04:02:43;12.40;;;6.37;;
13263;SDS011;6700;51.988;7.646;2023-07-31T04:05:10;13.03;;;6.27;;
13263;SDS011;6700;51.988;7.646;2023-07-31T04:07:38;13.90;;;6.17;;
13263;SDS011;6700;51.988;7.646;2023-07-31T04:10:05;15.07;;;6.80;;
13263;SDS011;6700;51.988;7.646;2023-07-31T04:12:32;12.10;;;6.57;;
13263;SDS011;6700;51.988;7.646;2023-07-31T04:14:59;12.53;;;6.50;;
13263;SDS011;6700;51.988;7.646;2023-07-31T04:17:26;11.30;;;6.70;;
13263;SDS011;6700;51.988;7.646;2023-07-31T04:19:54;13.37;;;6.47;;
13263;SDS011;6700;51.988;7.646;2023-07-31T04:22:21;15.17;;;6.60;;
13263;SDS011;6700;51.988;7.646;2023-07-31T04:24:48;15.83;;;6.30;;
13263;SDS011;6700;51.988;7.646;2023-07-31T04:27:15;11.10;;;6.50;;
13263;SDS011;6700;51.988;7.646;2023-07-31T04:29:42;15.87;;;6.10;;
13263;SDS011;6700;51.988;7.646;2023-07-31T04:32:12;8.67;;;5.23;;
13263;SDS011;6700;51.988;7.646;2023-07-31T04:34:39;17.13;;;7.17;;
13263;SDS011;6700;51.988;7.646;2023-07-31T04:37:06;16.90;;;7.27;;
13263;SDS011;6700;51.988;7.646;2023-07-31T04:39:33;14.63;;;6.53;;
13263;SDS011;6700;51.988;7.646;2023-07-31T04:42:01;12.33;;;5.87;;
13263;SDS011;6700;51.988;7.646;2023-07-31T04:44:28;11.80;;;5.90;;
13263;SDS011;6700;51.988;7.646;2023-07-31T04:46:55;11.77;;;5.57;;
13263;SDS011;6700;51.988;7.646;2023-07-31T04:49:22;13.23;;;5.50;;
13263;SDS011;6700;51.988;7.646;2023-07-31T04:51:49;12.40;;;5.23;;
13263;SDS011;6700;51.988;7.646;2023-07-31T04:54:17;9.67;;;5.40;;
13263;SDS011;6700;51.988;7.646;2023-07-31T04:56:44;15.27;;;5.57;;
13263;SDS011;6700;51.988;7.646;2023-07-31T04:59:12;13.37;;;5.80;;
13263;SDS011;6700;51.988;7.646;2023-07-31T05:01:39;18.03;;;5.23;;
13263;SDS011;6700;51.988;7.646;2023-07-31T05:04:06;13.43;;;5.47;;
13263;SDS011;6700;51.988;7.646;2023-07-31T05:06:33;10.03;;;4.93;;
13263;SDS011;6700;51.988;7.646;2023-07-31T05:09:00;11.57;;;5.53;;
13263;SDS011;6700;51.988;7.646;2023-07-31T05:11:27;14.80;;;5.73;;
13263;SDS011;6700;51.988;7.646;2023-07-31T05:13:54;11.93;;;5.07;;
13263;SDS011;6700;51.988;7.646;2023-07-31T05:16:22;13.00;;;6.00;;
13263;SDS011;6700;51.988;7.646;2023-07-31T05:18:49;9.87;;;5.67;;
13263;SDS011;6700;51.988;7.646;2023-07-31T05:21:16;15.13;;;6.47;;
13263;SDS011;6700;51.988;7.646;2023-07-31T05:23:43;9.87;;;4.90;;
13263;SDS011;6700;51.988;7.646;2023-07-31T05:26:10;13.43;;;6.53;;
13263;SDS011;6700;51.988;7.646;2023-07-31T05:28:38;10.37;;;5.10;;
13263;SDS011;6700;51.988;7.646;2023-07-31T05:31:05;12.77;;;5.40;;
13263;SDS011;6700;51.988;7.646;2023-07-31T05:33:33;9.53;;;5.83;;
13263;SDS011;6700;51.988;7.646;2023-07-31T05:36:00;11.27;;;5.60;;
13263;SDS011;6700;51.988;7.646;2023-07-31T05:38:27;11.67;;;5.77;;
13263;SDS011;6700;51.988;7.646;2023-07-31T05:40:54;11.17;;;5.37;;
13263;SDS011;6700;51.988;7.646;2023-07-31T05:43:22;10.97;;;5.03;;
13263;SDS011;6700;51.988;7.646;2023-07-31T05:45:49;13.70;;;6.10;;
13263;SDS011;6700;51.988;7.646;2023-07-31T05:48:16;10.03;;;5.67;;
13263;SDS011;6700;51.988;7.646;2023-07-31T05:50:44;16.60;;;5.77;;
13263;SDS011;6700;51.988;7.646;2023-07-31T05:53:11;10.30;;;6.17;;
13263;SDS011;6700;51.988;7.646;2023-07-31T05:55:39;10.23;;;5.13;;
13263;SDS011;6700;51.988;7.646;2023-07-31T05:58:06;9.67;;;5.07;;
13263;SDS011;6700;51.988;7.646;2023-07-31T06:00:33;12.07;;;6.20;;
13263;SDS011;6700;51.988;7.646;2023-07-31T06:03:00;8.13;;;5.10;;
13263;SDS011;6700;51.988;7.646;2023-07-31T06:05:28;9.00;;;6.03;;
13263;SDS011;6700;51.988;7.646;2023-07-31T06:07:56;10.63;;;6.00;;
13263;SDS011;6700;51.988;7.646;2023-07-31T06:10:24;9.03;;;4.53;;
13263;SDS011;6700;51.988;7.646;2023-07-31T06:12:51;11.37;;;4.83;;
13263;SDS011;6700;51.988;7.646;2023-07-31T06:15:18;11.80;;;5.37;;
13263;SDS011;6700;51.988;7.646;2023-07-31T06:17:46;11.70;;;5.80;;
13263;SDS011;6700;51.988;7.646;2023-07-31T06:20:13;7.80;;;5.10;;
13263;SDS011;6700;51.988;7.646;2023-07-31T06:22:40;8.10;;;4.27;;
13263;SDS011;6700;51.988;7.646;2023-07-31T06:25:08;17.07;;;6.20;;
13263;SDS011;6700;51.988;7.646;2023-07-31T06:27:39;11.17;;;5.33;;
13263;SDS011;6700;51.988;7.646;2023-07-31T06:30:06;15.07;;;5.43;;
13263;SDS011;6700;51.988;7.646;2023-07-31T06:32:34;9.80;;;4.67;;
13263;SDS011;6700;51.988;7.646;2023-07-31T06:35:03;14.73;;;5.47;;
13263;SDS011;6700;51.988;7.646;2023-07-31T06:37:30;8.93;;;5.10;;
13263;SDS011;6700;51.988;7.646;2023-07-31T06:39:57;12.30;;;4.93;;
13263;SDS011;6700;51.988;7.646;2023-07-31T06:42:25;7.60;;;5.73;;
13263;SDS011;6700;51.988;7.646;2023-07-31T06:44:53;8.93;;;4.40;;
13263;SDS011;6700;51.988;7.646;2023-07-31T06:47:20;9.90;;;5.17;;
13263;SDS011;6700;51.988;7.646;2023-07-31T06:49:47;15.40;;;5.60;;
13263;SDS011;6700;51.988;7.646;2023-07-31T06:52:14;13.87;;;5.13;;
13263;SDS011;6700;51.988;7.646;2023-07-31T06:54:41;10.33;;;5.00;;
13263;SDS011;6700;51.988;7.646;2023-07-31T06:57:08;7.27;;;4.60;;
13263;SDS011;6700;51.988;7.646;2023-07-31T06:59:35;11.33;;;5.33;;
13263;SDS011;6700;51.988;7.646;2023-07-31T07:02:03;14.57;;;5.50;;
13263;SDS011;6700;51.988;7.646;2023-07-31T07:04:32;12.30;;;5.30;;
13263;SDS011;6700;51.988;7.646;2023-07-31T07:06:59;11.97;;;4.83;;
13263;SDS011;6700;51.988;7.646;2023-07-31T07:09:26;11.70;;;4.80;;
13263;SDS011;6700;51.988;7.646;2023-07-31T07:11:55;14.13;;;5.37;;
13263;SDS011;6700;51.988;7.646;2023-07-31T07:14:22;11.57;;;4.33;;
13263;SDS011;6700;51.988;7.646;2023-07-31T07:16:52;8.20;;;4.87;;
13263;SDS011;6700;51.988;7.646;2023-07-31T07:19:19;11.43;;;4.97;;
13263;SDS011;6700;51.988;7.646;2023-07-31T07:21:46;7.80;;;4.60;;
13263;SDS011;6700;51.988;7.646;2023-07-31T07:24:13;12.37;;;5.13;;
13263;SDS011;6700;51.988;7.646;2023-07-31T07:26:41;7.93;;;4.00;;
13263;SDS011;6700;51.988;7.646;2023-07-31T07:29:08;8.00;;;5.67;;
13263;SDS011;6700;51.988;7.646;2023-07-31T07:31:37;12.27;;;5.00;;
13263;SDS011;6700;51.988;7.646;2023-07-31T07:34:04;8.37;;;5.03;;
13263;SDS011;6700;51.988;7.646;2023-07-31T07:36:31;9.30;;;5.27;;
13263;SDS011;6700;51.988;7.646;2023-07-31T07:39:00;8.70;;;5.13;;
13263;SDS011;6700;51.988;7.646;2023-07-31T07:41:27;7.23;;;5.47;;
13263;SDS011;6700;51.988;7.646;2023-07-31T07:43:54;9.60;;;5.30;;
13263;SDS011;6700;51.988;7.646;2023-07-31T07:46:21;8.23;;;6.03;;
13263;SDS011;6700;51.988;7.646;2023-07-31T07:48:49;9.27;;;6.13;;
13263;SDS011;6700;51.988;7.646;2023-07-31T07:51:16;9.73;;;5.93;;
13263;SDS011;6700;51.988;7.646;2023-07-31T07:53:43;8.70;;;5.83;;
13263;SDS011;6700;51.988;7.646;2023-07-31T07:56:11;10.83;;;5.70;;
13263;SDS011;6700;51.988;7.646;2023-07-31T07:58:38;7.50;;;5.40;;
13263;SDS011;6700;51.988;7.646;2023-07-31T08:01:05;6.50;;;5.63;;
13263;SDS011;6700;51.988;7.646;2023-07-31T08:03:36;8.80;;;5.20;;
13263;SDS011;6700;51.988;7.646;2023-07-31T08:06:03;6.80;;;4.90;;
13263;SDS011;6700;51.988;7.646;2023-07-31T08:08:30;5.87;;;5.27;;
13263;SDS011;6700;51.988;7.646;2023-07-31T08:10:57;6.30;;;5.03;;
13263;SDS011;6700;51.988;7.646;2023-07-31T08:13:24;5.10;;;4.60;;
13263;SDS011;6700;51.988;7.646;2023-07-31T08:15:52;5.53;;;4.40;;
13263;SDS011;6700;51.988;7.646;2023-07-31T08:18:19;4.60;;;4.20;;
13263;SDS011;6700;51.988;7.646;2023-07-31T08:20:46;5.00;;;4.37;;
13263;SDS011;6700;51.988;7.646;2023-07-31T08:23:13;4.33;;;3.90;;
13263;SDS011;6700;51.988;7.646;2023-07-31T08:25:41;4.97;;;4.50;;
13263;SDS011;6700;51.988;7.646;2023-07-31T08:28:08;5.37;;;4.63;;
13263;SDS011;6700;51.988;7.646;2023-07-31T08:30:35;5.33;;;4.67;;
13263;SDS011;6700;51.988;7.646;2023-07-31T08:33:03;4.33;;;3.93;;
13263;SDS011;6700;51.988;7.646;2023-07-31T08:35:30;3.93;;;3.53;;
13263;SDS011;6700;51.988;7.646;2023-07-31T08:37:57;4.97;;;4.57;;
13263;SDS011;6700;51.988;7.646;2023-07-31T08:40:25;4.70;;;4.30;;
13263;SDS011;6700;51.988;7.646;2023-07-31T08:42:54;3.93;;;3.63;;
13263;SDS011;6700;51.988;7.646;2023-07-31T08:45:22;4.50;;;4.10;;
13263;SDS011;6700;51.988;7.646;2023-07-31T08:47:50;4.37;;;3.97;;
13263;SDS011;6700;51.988;7.646;2023-07-31T08:50:19;5.03;;;4.63;;
13263;SDS011;6700;51.988;7.646;2023-07-31T08:52:47;3.73;;;3.43;;
13263;SDS011;6700;51.988;7.646;2023-07-31T08:55:14;4.50;;;3.90;;
13263;SDS011;6700;51.988;7.646;2023-07-31T08:57:41;4.07;;;3.77;;
13263;SDS011;6700;51.988;7.646;2023-07-31T09:00:09;4.10;;;3.70;;
13263;SDS011;6700;51.988;7.646;2023-07-31T09:02:52;4.00;;;3.70;;
13263;SDS011;6700;51.988;7.646;2023-07-31T09:05:21;3.90;;;3.60;;
13263;SDS011;6700;51.988;7.646;2023-07-31T09:07:48;3.17;;;2.87;;
13263;SDS011;6700;51.988;7.646;2023-07-31T09:10:16;4.13;;;3.53;;
13263;SDS011;6700;51.988;7.646;2023-07-31T09:12:44;3.77;;;3.40;;
13263;SDS011;6700;51.988;7.646;2023-07-31T09:15:11;3.60;;;3.20;;
13263;SDS011;6700;51.988;7.646;2023-07-31T09:18:00;4.13;;;3.20;;
13263;SDS011;6700;51.988;7.646;2023-07-31T09:20:27;4.20;;;3.40;;
13263;SDS011;6700;51.988;7.646;2023-07-31T09:22:55;3.80;;;3.40;;
13263;SDS011;6700;51.988;7.646;2023-07-31T09:25:23;3.60;;;3.27;;
13263;SDS011;6700;51.988;7.646;2023-07-31T09:27:54;3.30;;;3.00;;
13263;SDS011;6700;51.988;7.646;2023-07-31T09:30:21;3.77;;;3.47;;
13263;SDS011;6700;51.988;7.646;2023-07-31T09:32:49;4.90;;;3.70;;
13263;SDS011;6700;51.988;7.646;2023-07-31T09:35:27;4.50;;;4.10;;
13263;SDS011;6700;51.988;7.646;2023-07-31T09:37:56;5.40;;;4.37;;
13263;SDS011;6700;51.988;7.646;2023-07-31T09:40:28;4.40;;;4.00;;
13263;SDS011;6700;51.988;7.646;2023-07-31T09:42:56;5.33;;;4.83;;
13263;SDS011;6700;51.988;7.646;2023-07-31T09:45:23;4.50;;;4.10;;
13263;SDS011;6700;51.988;7.646;2023-07-31T09:50:39;3.87;;;3.57;;
13263;SDS011;6700;51.988;7.646;2023-07-31T09:53:07;4.43;;;3.97;;
13263;SDS011;6700;51.988;7.646;2023-07-31T09:55:34;4.73;;;4.20;;
13263;SDS011;6700;51.988;7.646;2023-07-31T09:58:03;4.50;;;4.10;;
13263;SDS011;6700;51.988;7.646;2023-07-31T10:00:31;3.77;;;3.47;;
13263;SDS011;6700;51.988;7.646;2023-07-31T10:02:59;4.00;;;3.67;;
13263;SDS011;6700;51.988;7.646;2023-07-31T10:05:31;6.00;;;4.97;;
13263;SDS011;6700;51.988;7.646;2023-07-31T10:08:00;4.37;;;3.50;;
13263;SDS011;6700;51.988;7.646;2023-07-31T10:10:28;3.70;;;3.40;;
13263;SDS011;6700;51.988;7.646;2023-07-31T10:12:59;3.90;;;3.50;;
13263;SDS011;6700;51.988;7.646;2023-07-31T10:15:26;3.77;;;3.37;;
13263;SDS011;6700;51.988;7.646;2023-07-31T10:17:54;4.20;;;3.40;;
13263;SDS011;6700;51.988;7.646;2023-07-31T10:20:23;3.70;;;3.23;;
13263;SDS011;6700;51.988;7.646;2023-07-31T10:22:51;3.40;;;3.10;;
13263;SDS011;6700;51.988;7.646;2023-07-31T10:25:18;3.70;;;3.40;;
13263;SDS011;6700;51.988;7.646;2023-07-31T10:27:47;3.30;;;3.10;;
13263;SDS011;6700;51.988;7.646;2023-07-31T10:30:15;3.50;;;3.23;;
13263;SDS011;6700;51.988;7.646;2023-07-31T10:32:45;3.50;;;3.30;;
13263;SDS011;6700;51.988;7.646;2023-07-31T10:35:12;3.87;;;3.10;;
13263;SDS011;6700;51.988;7.646;2023-07-31T10:37:41;3.67;;;3.37;;
13263;SDS011;6700;51.988;7.646;2023-07-31T10:40:10;4.23;;;3.30;;
13263;SDS011;6700;51.988;7.646;2023-07-31T10:43:00;4.40;;;3.87;;
13263;SDS011;6700;51.988;7.646;2023-07-31T10:47:58;5.13;;;4.07;;
13263;SDS011;6700;51.988;7.646;2023-07-31T10:50:27;3.90;;;3.60;;
13263;SDS011;6700;51.988;7.646;2023-07-31T10:52:54;4.73;;;4.17;;
13263;SDS011;6700;51.988;7.646;2023-07-31T10:55:24;4.20;;;3.80;;
13263;SDS011;6700;51.988;7.646;2023-07-31T10:57:52;4.23;;;3.93;;
13263;SDS011;6700;51.988;7.646;2023-07-31T11:00:21;4.60;;;4.20;;
13263;SDS011;6700;51.988;7.646;2023-07-31T11:02:58;4.47;;;4.07;;
13263;SDS011;6700;51.988;7.646;2023-07-31T11:06:08;4.20;;;3.80;;
13263;SDS011;6700;51.988;7.646;2023-07-31T11:08:24;4.50;;;3.80;;
13263;SDS011;6700;51.988;7.646;2023-07-31T11:13:31;4.00;;;3.60;;
13263;SDS011;6700;51.988;7.646;2023-07-31T11:15:58;5.23;;;3.80;;
13263;SDS011;6700;51.988;7.646;2023-07-31T11:18:26;4.40;;;4.10;;
13263;SDS011;6700;51.988;7.646;2023-07-31T11:20:53;5.70;;;4.00;;
13263;SDS011;6700;51.988;7.646;2023-07-31T11:23:21;3.93;;;3.63;;
13263;SDS011;6700;51.988;7.646;2023-07-31T11:25:49;4.77;;;4.37;;
13263;SDS011;6700;51.988;7.646;2023-07-31T11:28:18;5.47;;;3.80;;
13263;SDS011;6700;51.988;7.646;2023-07-31T11:30:45;4.80;;;4.23;;
13263;SDS011;6700;51.988;7.646;2023-07-31T11:33:13;4.20;;;3.90;;
13263;SDS011;6700;51.988;7.646;2023-07-31T11:35:43;4.63;;;4.03;;
13263;SDS011;6700;51.988;7.646;2023-07-31T11:38:12;4.23;;;3.83;;
13263;SDS011;6700;51.988;7.646;2023-07-31T11:40:43;4.20;;;3.90;;
13263;SDS011;6700;51.988;7.646;2023-07-31T11:43:10;3.97;;;3.67;;
13263;SDS011;6700;51.988;7.646;2023-07-31T11:45:46;4.30;;;4.00;;
13263;SDS011;6700;51.988;7.646;2023-07-31T11:48:27;4.43;;;4.00;;
13263;SDS011;6700;51.988;7.646;2023-07-31T11:51:05;3.87;;;3.47;;
13263;SDS011;6700;51.988;7.646;2023-07-31T11:53:38;4.80;;;4.27;;
13263;SDS011;6700;51.988;7.646;2023-07-31T11:56:08;5.10;;;4.60;;
13263;SDS011;6700;51.988;7.646;2023-07-31T11:58:37;4.80;;;4.30;;
13263;SDS011;6700;51.988;7.646;2023-07-31T12:01:05;6.23;;;5.30;;
13263;SDS011;6700;51.988;7.646;2023-07-31T12:03:33;6.13;;;5.13;;
13263;SDS011;6700;51.988;7.646;2023-07-31T12:06:01;6.07;;;5.57;;
13263;SDS011;6700;51.988;7.646;2023-07-31T12:08:28;6.17;;;5.67;;
13263;SDS011;6700;51.988;7.646;2023-07-31T12:11:01;7.40;;;6.70;;
13263;SDS011;6700;51.988;7.646;2023-07-31T12:13:30;9.87;;;6.83;;
13263;SDS011;6700;51.988;7.646;2023-07-31T12:15:58;7.33;;;6.67;;
13263;SDS011;6700;51.988;7.646;2023-07-31T12:18:26;7.30;;;6.70;;
13263;SDS011;6700;51.988;7.646;2023-07-31T12:20:54;8.87;;;7.93;;
13263;SDS011;6700;51.988;7.646;2023-07-31T12:23:22;9.27;;;8.37;;
13263;SDS011;6700;51.988;7.646;2023-07-31T12:28:36;8.03;;;7.33;;
13263;SDS011;6700;51.988;7.646;2023-07-31T12:31:04;8.70;;;7.82;;
13263;SDS011;6700;51.988;7.646;2023-07-31T12:33:35;8.30;;;7.60;;
13263;SDS011;6700;51.988;7.646;2023-07-31T12:36:06;9.13;;;6.50;;
13263;SDS011;6700;51.988;7.646;2023-07-31T12:38:33;7.20;;;6.50;;
13263;SDS011;6700;51.988;7.646;2023-07-31T12:41:00;7.07;;;6.38;;
13263;SDS011;6700;51.988;7.646;2023-07-31T12:43:27;5.22;;;4.82;;
13263;SDS011;6700;51.988;7.646;2023-07-31T12:45:55;9.82;;;5.10;;
13263;SDS011;6700;51.988;7.646;2023-07-31T12:48:23;5.43;;;4.97;;
13263;SDS011;6700;51.988;7.646;2023-07-31T12:50:50;5.90;;;5.30;;
13263;SDS011;6700;51.988;7.646;2023-07-31T12:53:17;5.43;;;5.03;;
13263;SDS011;6700;51.988;7.646;2023-07-31T12:55:44;7.45;;;5.32;;
13263;SDS011;6700;51.988;7.646;2023-07-31T12:58:11;7.90;;;5.00;;
13263;SDS011;6700;51.988;7.646;2023-07-31T13:00:38;5.43;;;4.93;;
13263;SDS011;6700;51.988;7.646;2023-07-31T13:03:06;5.53;;;5.05;;
13263;SDS011;6700;51.988;7.646;2023-07-31T13:05:35;5.25;;;4.75;;
13263;SDS011;6700;51.988;7.646;2023-07-31T13:08:03;4.80;;;4.40;;
13263;SDS011;6700;51.988;7.646;2023-07-31T13:10:30;6.22;;;4.35;;
13263;SDS011;6700;51.988;7.646;2023-07-31T13:12:57;4.47;;;4.07;;
13263;SDS011;6700;51.988;7.646;2023-07-31T13:15:24;4.78;;;4.30;;
13263;SDS011;6700;51.988;7.646;2023-07-31T13:17:51;5.32;;;4.63;;
13263;SDS011;6700;51.988;7.646;2023-07-31T13:20:19;5.05;;;4.55;;
13263;SDS011;6700;51.988;7.646;2023-07-31T13:22:46;5.00;;;4.45;;
13263;SDS011;6700;51.988;7.646;2023-07-31T13:25:13;5.38;;;4.00;;
13263;SDS011;6700;51.988;7.646;2023-07-31T13:27:40;5.30;;;4.53;;
13263;SDS011;6700;51.988;7.646;2023-07-31T13:30:08;4.60;;;4.25;;
13263;SDS011;6700;51.988;7.646;2023-07-31T13:32:35;4.93;;;4.37;;
13263;SDS011;6700;51.988;7.646;2023-07-31T13:35:06;5.80;;;5.07;;
13263;SDS011;6700;51.988;7.646;2023-07-31T13:37:33;4.93;;;4.53;;
13263;SDS011;6700;51.988;7.646;2023-07-31T13:40:01;8.10;;;4.70;;
13263;SDS011;6700;51.988;7.646;2023-07-31T13:42:31;5.33;;;4.77;;
13263;SDS011;6700;51.988;7.646;2023-07-31T13:44:58;5.33;;;4.57;;
13263;SDS011;6700;51.988;7.646;2023-07-31T13:47:26;5.00;;;4.60;;
13263;SDS011;6700;51.988;7.646;2023-07-31T13:49:53;5.60;;;5.10;;
13263;SDS011;6700;51.988;7.646;2023-07-31T13:52:20;5.70;;;5.20;;
13263;SDS011;6700;51.988;7.646;2023-07-31T13:54:48;5.65;;;5.20;;
13263;SDS011;6700;51.988;7.646;2023-07-31T13:57:15;9.15;;;5.72;;
13263;SDS011;6700;51.988;7.646;2023-07-31T13:59:43;5.18;;;4.72;;
13263;SDS011;6700;51.988;7.646;2023-07-31T14:02:10;5.70;;;5.07;;
13263;SDS011;6700;51.988;7.646;2023-07-31T14:04:37;6.00;;;5.20;;
13263;SDS011;6700;51.988;7.646;2023-07-31T14:07:04;5.63;;;5.13;;
13263;SDS011;6700;51.988;7.646;2023-07-31T14:09:31;5.70;;;5.20;;
13263;SDS011;6700;51.988;7.646;2023-07-31T14:11:59;6.07;;;4.90;;
13263;SDS011;6700;51.988;7.646;2023-07-31T14:14:26;5.83;;;5.03;;
13263;SDS011;6700;51.988;7.646;2023-07-31T14:16:53;6.03;;;5.53;;
13263;SDS011;6700;51.988;7.646;2023-07-31T14:19:21;5.57;;;5.07;;
13263;SDS011;6700;51.988;7.646;2023-07-31T14:21:52;6.28;;;5.63;;
13263;SDS011;6700;51.988;7.646;2023-07-31T14:24:37;6.30;;;5.80;;
13263;SDS011;6700;51.988;7.646;2023-07-31T14:27:05;6.68;;;5.75;;
13263;SDS011;6700;51.988;7.646;2023-07-31T14:29:32;6.20;;;5.40;;
13263;SDS011;6700;51.988;7.646;2023-07-31T14:31:59;5.65;;;5.15;;
13263;SDS011;6700;51.988;7.646;2023-07-31T14:34:27;5.35;;;4.85;;
13263;SDS011;6700;51.988;7.646;2023-07-31T14:36:54;5.60;;;5.15;;
13263;SDS011;6700;51.988;7.646;2023-07-31T14:39:22;6.03;;;4.95;;
13263;SDS011;6700;51.988;7.646;2023-07-31T14:41:50;5.00;;;4.40;;
13263;SDS011;6700;51.988;7.646;2023-07-31T14:44:17;4.88;;;4.47;;
13263;SDS011;6700;51.988;7.646;2023-07-31T14:46:45;4.80;;;4.25;;
13263;SDS011;6700;51.988;7.646;2023-07-31T14:49:13;4.45;;;4.05;;
13263;SDS011;6700;51.988;7.646;2023-07-31T14:51:41;4.57;;;4.18;;
13263;SDS011;6700;51.988;7.646;2023-07-31T14:54:10;5.65;;;4.40;;
13263;SDS011;6700;51.988;7.646;2023-07-31T14:56:37;4.95;;;4.45;;
13263;SDS011;6700;51.988;7.646;2023-07-31T14:59:05;5.25;;;4.53;;
13263;SDS011;6700;51.988;7.646;2023-07-31T15:01:34;5.63;;;5.13;;
13263;SDS011;6700;51.988;7.646;2023-07-31T15:04:01;6.95;;;6.32;;
13263;SDS011;6700;51.988;7.646;2023-07-31T15:06:29;6.82;;;5.88;;
13263;SDS011;6700;51.988;7.646;2023-07-31T15:08:56;7.20;;;6.60;;
13263;SDS011;6700;51.988;7.646;2023-07-31T15:11:24;7.18;;;6.47;;
13263;SDS011;6700;51.988;7.646;2023-07-31T15:13:52;8.00;;;6.53;;
13263;SDS011;6700;51.988;7.646;2023-07-31T15:16:19;7.87;;;6.93;;